sensor_id;sensor_type;location;lat;lon;timestamp;temperature;humidity
32698;DHT22;19087;51.062;3.754;2023-07-13T00:00:12;17.20;99.90
32698;DHT22;19087;51.062;3.754;2023-07-13T00:02:41;17.10;99.90
32698;DHT22;19087;51.062;3.754;2023-07-13T00:05:06;17.20;99.90
32698;DHT22;19087;51.062;3.754;2023-07-13T00:07:32;17.20;99.90
32698;DHT22;19087;51.062;3.754;2023-07-13T00:09:57;17.20;99.90
32698;DHT22;19087;51.062;3.754;2023-07-13T00:14:53;17.20;99.90
32698;DHT22;19087;51.062;3.754;2023-07-13T00:17:18;17.20;99.90
32698;DHT22;19087;51.062;3.754;2023-07-13T00:19:44;17.20;99.90
32698;DHT22;19087;51.062;3.754;2023-07-13T00:22:09;17.00;99.90
32698;DHT22;19087;51.062;3.754;2023-07-13T00:24:35;17.10;99.90
32698;DHT22;19087;51.062;3.754;2023-07-13T00:27:01;17.00;99.90
32698;DHT22;19087;51.062;3.754;2023-07-13T00:29:26;17.10;99.90
32698;DHT22;19087;51.062;3.754;2023-07-13T00:31:52;17.10;99.90
32698;DHT22;19087;51.062;3.754;2023-07-13T00:34:17;17.00;99.90
32698;DHT22;19087;51.062;3.754;2023-07-13T00:36:43;17.00;99.90
32698;DHT22;19087;51.062;3.754;2023-07-13T00:39:09;17.00;99.90
32698;DHT22;19087;51.062;3.754;2023-07-13T00:41:35;16.90;99.90
32698;DHT22;19087;51.062;3.754;2023-07-13T00:44:02;16.90;99.90
32698;DHT22;19087;51.062;3.754;2023-07-13T00:46:29;16.90;99.90
32698;DHT22;19087;51.062;3.754;2023-07-13T00:48:56;16.90;99.90
32698;DHT22;19087;51.062;3.754;2023-07-13T00:51:24;16.70;99.90
32698;DHT22;19087;51.062;3.754;2023-07-13T00:53:50;16.70;99.90
32698;DHT22;19087;51.062;3.754;2023-07-13T00:56:18;16.60;99.90
32698;DHT22;19087;51.062;3.754;2023-07-13T00:58:43;16.60;99.90
32698;DHT22;19087;51.062;3.754;2023-07-13T01:01:09;16.60;99.90
32698;DHT22;19087;51.062;3.754;2023-07-13T01:03:35;16.60;99.90
32698;DHT22;19087;51.062;3.754;2023-07-13T01:06:00;16.50;99.90
32698;DHT22;19087;51.062;3.754;2023-07-13T01:08:26;16.60;99.90
32698;DHT22;19087;51.062;3.754;2023-07-13T01:10:52;16.60;99.90
32698;DHT22;19087;51.062;3.754;2023-07-13T01:13:18;16.70;99.90
32698;DHT22;19087;51.062;3.754;2023-07-13T01:15:45;16.70;99.90
32698;DHT22;19087;51.062;3.754;2023-07-13T01:18:15;16.60;99.90
32698;DHT22;19087;51.062;3.754;2023-07-13T01:20:49;16.60;99.90
32698;DHT22;19087;51.062;3.754;2023-07-13T01:23:15;16.50;99.90
32698;DHT22;19087;51.062;3.754;2023-07-13T01:25:42;16.50;99.90
32698;DHT22;19087;51.062;3.754;2023-07-13T01:28:08;16.50;99.90
32698;DHT22;19087;51.062;3.754;2023-07-13T01:30:37;16.60;99.90
32698;DHT22;19087;51.062;3.754;2023-07-13T01:33:08;16.50;99.90
32698;DHT22;19087;51.062;3.754;2023-07-13T01:35:35;16.40;99.90
32698;DHT22;19087;51.062;3.754;2023-07-13T01:38:01;16.50;99.90
32698;DHT22;19087;51.062;3.754;2023-07-13T01:40:28;16.40;99.90
32698;DHT22;19087;51.062;3.754;2023-07-13T01:42:54;16.50;99.90
32698;DHT22;19087;51.062;3.754;2023-07-13T01:45:19;16.40;99.90
32698;DHT22;19087;51.062;3.754;2023-07-13T01:47:45;16.30;99.90
32698;DHT22;19087;51.062;3.754;2023-07-13T01:50:10;16.30;99.90
32698;DHT22;19087;51.062;3.754;2023-07-13T01:52:36;16.20;99.90
32698;DHT22;19087;51.062;3.754;2023-07-13T01:55:01;16.10;99.90
32698;DHT22;19087;51.062;3.754;2023-07-13T01:57:27;16.10;99.90
32698;DHT22;19087;51.062;3.754;2023-07-13T01:59:53;16.20;99.90
32698;DHT22;19087;51.062;3.754;2023-07-13T02:02:19;16.30;99.90
32698;DHT22;19087;51.062;3.754;2023-07-13T02:04:45;16.30;99.90
32698;DHT22;19087;51.062;3.754;2023-07-13T02:07:10;16.30;99.90
32698;DHT22;19087;51.062;3.754;2023-07-13T02:09:38;16.40;99.90
32698;DHT22;19087;51.062;3.754;2023-07-13T02:12:04;16.40;99.90
32698;DHT22;19087;51.062;3.754;2023-07-13T02:14:30;16.50;99.90
32698;DHT22;19087;51.062;3.754;2023-07-13T02:16:55;16.60;99.90
32698;DHT22;19087;51.062;3.754;2023-07-13T02:19:21;16.70;99.90
32698;DHT22;19087;51.062;3.754;2023-07-13T02:21:47;16.70;99.90
32698;DHT22;19087;51.062;3.754;2023-07-13T02:24:12;16.70;99.90
32698;DHT22;19087;51.062;3.754;2023-07-13T02:26:45;16.60;99.90
32698;DHT22;19087;51.062;3.754;2023-07-13T02:29:10;16.80;99.90
32698;DHT22;19087;51.062;3.754;2023-07-13T02:31:36;16.80;99.90
32698;DHT22;19087;51.062;3.754;2023-07-13T02:34:02;16.90;99.90
32698;DHT22;19087;51.062;3.754;2023-07-13T02:36:28;16.70;99.90
32698;DHT22;19087;51.062;3.754;2023-07-13T02:38:53;16.60;99.90
32698;DHT22;19087;51.062;3.754;2023-07-13T02:41:19;16.60;99.90
32698;DHT22;19087;51.062;3.754;2023-07-13T02:43:44;16.60;99.90
32698;DHT22;19087;51.062;3.754;2023-07-13T02:46:10;16.50;99.90
32698;DHT22;19087;51.062;3.754;2023-07-13T02:48:36;16.50;99.90
32698;DHT22;19087;51.062;3.754;2023-07-13T02:51:02;16.60;99.90
32698;DHT22;19087;51.062;3.754;2023-07-13T02:53:28;16.50;99.90
32698;DHT22;19087;51.062;3.754;2023-07-13T02:55:53;16.40;99.90
32698;DHT22;19087;51.062;3.754;2023-07-13T02:58:19;16.40;99.90
32698;DHT22;19087;51.062;3.754;2023-07-13T03:00:45;16.30;99.90
32698;DHT22;19087;51.062;3.754;2023-07-13T03:03:12;16.30;99.90
32698;DHT22;19087;51.062;3.754;2023-07-13T03:05:40;16.30;99.90
32698;DHT22;19087;51.062;3.754;2023-07-13T03:08:05;16.20;99.90
32698;DHT22;19087;51.062;3.754;2023-07-13T03:10:32;16.20;99.90
32698;DHT22;19087;51.062;3.754;2023-07-13T03:12:57;16.10;99.90
32698;DHT22;19087;51.062;3.754;2023-07-13T03:15:23;16.10;99.90
32698;DHT22;19087;51.062;3.754;2023-07-13T03:17:49;16.10;99.90
32698;DHT22;19087;51.062;3.754;2023-07-13T03:20:14;16.10;99.90
32698;DHT22;19087;51.062;3.754;2023-07-13T03:22:40;16.00;99.90
32698;DHT22;19087;51.062;3.754;2023-07-13T03:25:07;16.00;99.90
32698;DHT22;19087;51.062;3.754;2023-07-13T03:27:32;16.00;99.90
32698;DHT22;19087;51.062;3.754;2023-07-13T03:29:58;16.10;99.90
32698;DHT22;19087;51.062;3.754;2023-07-13T03:32:23;16.20;99.90
32698;DHT22;19087;51.062;3.754;2023-07-13T03:34:49;16.20;99.90
32698;DHT22;19087;51.062;3.754;2023-07-13T03:37:14;16.30;99.90
32698;DHT22;19087;51.062;3.754;2023-07-13T03:39:40;16.30;99.90
32698;DHT22;19087;51.062;3.754;2023-07-13T03:42:06;16.30;99.90
32698;DHT22;19087;51.062;3.754;2023-07-13T03:44:31;16.40;99.90
32698;DHT22;19087;51.062;3.754;2023-07-13T03:46:57;16.40;99.90
32698;DHT22;19087;51.062;3.754;2023-07-13T03:49:22;16.30;99.90
32698;DHT22;19087;51.062;3.754;2023-07-13T03:51:48;16.30;99.90
32698;DHT22;19087;51.062;3.754;2023-07-13T03:54:13;16.20;99.90
32698;DHT22;19087;51.062;3.754;2023-07-13T03:56:39;16.30;99.90
32698;DHT22;19087;51.062;3.754;2023-07-13T03:59:04;16.20;99.90
32698;DHT22;19087;51.062;3.754;2023-07-13T04:01:30;16.10;99.90
32698;DHT22;19087;51.062;3.754;2023-07-13T04:03:56;16.20;99.90
32698;DHT22;19087;51.062;3.754;2023-07-13T04:06:22;16.30;99.90
32698;DHT22;19087;51.062;3.754;2023-07-13T04:08:50;16.40;99.90
32698;DHT22;19087;51.062;3.754;2023-07-13T04:11:17;16.50;99.90
32698;DHT22;19087;51.062;3.754;2023-07-13T04:13:42;16.40;99.90
32698;DHT22;19087;51.062;3.754;2023-07-13T04:16:08;16.50;99.90
32698;DHT22;19087;51.062;3.754;2023-07-13T04:18:33;16.60;99.90
32698;DHT22;19087;51.062;3.754;2023-07-13T04:20:59;16.60;99.90
32698;DHT22;19087;51.062;3.754;2023-07-13T04:23:24;16.70;99.90
32698;DHT22;19087;51.062;3.754;2023-07-13T04:25:51;16.90;99.90
32698;DHT22;19087;51.062;3.754;2023-07-13T04:28:21;16.90;99.90
32698;DHT22;19087;51.062;3.754;2023-07-13T04:30:47;16.90;99.90
32698;DHT22;19087;51.062;3.754;2023-07-13T04:33:12;17.00;99.90
32698;DHT22;19087;51.062;3.754;2023-07-13T04:35:38;17.10;99.90
32698;DHT22;19087;51.062;3.754;2023-07-13T04:38:03;17.20;99.90
32698;DHT22;19087;51.062;3.754;2023-07-13T04:40:30;17.20;99.90
32698;DHT22;19087;51.062;3.754;2023-07-13T04:42:55;17.30;99.90
32698;DHT22;19087;51.062;3.754;2023-07-13T04:45:21;17.30;99.90
32698;DHT22;19087;51.062;3.754;2023-07-13T04:47:49;17.40;99.90
32698;DHT22;19087;51.062;3.754;2023-07-13T04:50:14;17.40;99.90
32698;DHT22;19087;51.062;3.754;2023-07-13T04:52:49;17.50;99.90
32698;DHT22;19087;51.062;3.754;2023-07-13T04:55:14;17.50;99.90
32698;DHT22;19087;51.062;3.754;2023-07-13T04:57:40;17.70;99.90
32698;DHT22;19087;51.062;3.754;2023-07-13T05:00:06;17.70;99.90
32698;DHT22;19087;51.062;3.754;2023-07-13T05:02:32;17.70;99.90
32698;DHT22;19087;51.062;3.754;2023-07-13T05:04:58;17.90;99.90
32698;DHT22;19087;51.062;3.754;2023-07-13T05:07:24;17.90;99.90
32698;DHT22;19087;51.062;3.754;2023-07-13T05:09:50;17.90;99.90
32698;DHT22;19087;51.062;3.754;2023-07-13T05:12:16;18.10;99.90
32698;DHT22;19087;51.062;3.754;2023-07-13T05:14:41;18.20;99.90
32698;DHT22;19087;51.062;3.754;2023-07-13T05:17:07;18.00;99.90
32698;DHT22;19087;51.062;3.754;2023-07-13T05:19:32;18.10;99.90
32698;DHT22;19087;51.062;3.754;2023-07-13T05:21:58;18.30;99.90
32698;DHT22;19087;51.062;3.754;2023-07-13T05:24:24;18.30;99.90
32698;DHT22;19087;51.062;3.754;2023-07-13T05:26:49;18.40;99.90
32698;DHT22;19087;51.062;3.754;2023-07-13T05:29:15;18.50;99.90
32698;DHT22;19087;51.062;3.754;2023-07-13T05:31:42;18.60;99.90
32698;DHT22;19087;51.062;3.754;2023-07-13T05:34:07;18.70;99.90
32698;DHT22;19087;51.062;3.754;2023-07-13T05:36:33;18.80;99.90
32698;DHT22;19087;51.062;3.754;2023-07-13T05:38:58;18.70;99.90
32698;DHT22;19087;51.062;3.754;2023-07-13T05:41:24;18.90;99.90
32698;DHT22;19087;51.062;3.754;2023-07-13T05:43:52;19.10;99.90
32698;DHT22;19087;51.062;3.754;2023-07-13T05:46:17;19.30;99.90
32698;DHT22;19087;51.062;3.754;2023-07-13T05:48:44;19.50;99.90
32698;DHT22;19087;51.062;3.754;2023-07-13T05:51:09;19.70;99.90
32698;DHT22;19087;51.062;3.754;2023-07-13T05:53:35;19.50;99.90
32698;DHT22;19087;51.062;3.754;2023-07-13T05:56:01;19.40;99.90
32698;DHT22;19087;51.062;3.754;2023-07-13T05:58:26;19.40;99.90
32698;DHT22;19087;51.062;3.754;2023-07-13T06:00:58;19.70;99.90
32698;DHT22;19087;51.062;3.754;2023-07-13T06:03:24;19.80;99.90
32698;DHT22;19087;51.062;3.754;2023-07-13T06:05:50;19.60;99.90
32698;DHT22;19087;51.062;3.754;2023-07-13T06:08:15;19.80;99.90
32698;DHT22;19087;51.062;3.754;2023-07-13T06:10:41;19.80;99.90
32698;DHT22;19087;51.062;3.754;2023-07-13T06:13:10;20.20;99.90
32698;DHT22;19087;51.062;3.754;2023-07-13T06:15:35;20.50;99.90
32698;DHT22;19087;51.062;3.754;2023-07-13T06:18:01;20.80;99.90
32698;DHT22;19087;51.062;3.754;2023-07-13T06:20:26;21.00;99.90
32698;DHT22;19087;51.062;3.754;2023-07-13T06:22:52;21.20;99.90
32698;DHT22;19087;51.062;3.754;2023-07-13T06:25:17;21.00;99.90
32698;DHT22;19087;51.062;3.754;2023-07-13T06:27:43;21.20;99.90
32698;DHT22;19087;51.062;3.754;2023-07-13T06:30:08;21.30;99.90
32698;DHT22;19087;51.062;3.754;2023-07-13T06:32:34;21.10;99.90
32698;DHT22;19087;51.062;3.754;2023-07-13T06:35:00;21.50;99.90
32698;DHT22;19087;51.062;3.754;2023-07-13T06:37:25;21.70;99.90
32698;DHT22;19087;51.062;3.754;2023-07-13T06:39:51;22.20;99.90
32698;DHT22;19087;51.062;3.754;2023-07-13T06:42:16;22.60;99.90
32698;DHT22;19087;51.062;3.754;2023-07-13T06:44:42;23.30;99.90
32698;DHT22;19087;51.062;3.754;2023-07-13T06:47:08;23.60;99.90
32698;DHT22;19087;51.062;3.754;2023-07-13T06:49:33;24.70;99.90
32698;DHT22;19087;51.062;3.754;2023-07-13T06:51:59;25.90;96.10
32698;DHT22;19087;51.062;3.754;2023-07-13T06:54:24;26.20;95.30
32698;DHT22;19087;51.062;3.754;2023-07-13T06:56:50;27.30;93.60
32698;DHT22;19087;51.062;3.754;2023-07-13T06:59:18;27.40;93.00
32698;DHT22;19087;51.062;3.754;2023-07-13T07:01:44;27.20;92.10
32698;DHT22;19087;51.062;3.754;2023-07-13T07:04:09;27.10;92.00
32698;DHT22;19087;51.062;3.754;2023-07-13T07:06:35;26.70;91.80
32698;DHT22;19087;51.062;3.754;2023-07-13T07:09:00;26.90;91.60
32698;DHT22;19087;51.062;3.754;2023-07-13T07:11:26;27.70;91.20
32698;DHT22;19087;51.062;3.754;2023-07-13T07:13:52;28.30;88.20
32698;DHT22;19087;51.062;3.754;2023-07-13T07:16:18;28.50;87.80
32698;DHT22;19087;51.062;3.754;2023-07-13T07:18:44;30.00;85.90
32698;DHT22;19087;51.062;3.754;2023-07-13T07:21:10;30.90;81.60
32698;DHT22;19087;51.062;3.754;2023-07-13T07:23:37;31.20;79.60
32698;DHT22;19087;51.062;3.754;2023-07-13T07:26:02;32.20;77.90
32698;DHT22;19087;51.062;3.754;2023-07-13T07:28:28;32.60;74.60
32698;DHT22;19087;51.062;3.754;2023-07-13T07:30:55;33.80;73.20
32698;DHT22;19087;51.062;3.754;2023-07-13T07:33:22;34.90;70.40
32698;DHT22;19087;51.062;3.754;2023-07-13T07:35:48;35.50;67.90
32698;DHT22;19087;51.062;3.754;2023-07-13T07:38:14;35.80;67.10
32698;DHT22;19087;51.062;3.754;2023-07-13T07:40:40;36.50;65.10
32698;DHT22;19087;51.062;3.754;2023-07-13T07:43:07;36.30;63.50
32698;DHT22;19087;51.062;3.754;2023-07-13T07:45:33;37.10;61.00
32698;DHT22;19087;51.062;3.754;2023-07-13T07:47:59;36.00;60.60
32698;DHT22;19087;51.062;3.754;2023-07-13T07:50:25;34.50;61.90
32698;DHT22;19087;51.062;3.754;2023-07-13T07:52:50;33.30;64.30
32698;DHT22;19087;51.062;3.754;2023-07-13T07:55:16;32.50;65.60
32698;DHT22;19087;51.062;3.754;2023-07-13T07:57:42;31.00;67.50
32698;DHT22;19087;51.062;3.754;2023-07-13T08:00:07;30.20;70.00
32698;DHT22;19087;51.062;3.754;2023-07-13T08:02:33;30.00;70.30
32698;DHT22;19087;51.062;3.754;2023-07-13T08:04:58;29.90;71.20
32698;DHT22;19087;51.062;3.754;2023-07-13T08:07:24;29.10;72.60
32698;DHT22;19087;51.062;3.754;2023-07-13T08:09:52;28.70;73.50
32698;DHT22;19087;51.062;3.754;2023-07-13T08:12:17;28.10;75.10
32698;DHT22;19087;51.062;3.754;2023-07-13T08:14:43;28.40;75.60
32698;DHT22;19087;51.062;3.754;2023-07-13T08:17:08;29.30;74.60
32698;DHT22;19087;51.062;3.754;2023-07-13T08:19:34;30.40;72.70
32698;DHT22;19087;51.062;3.754;2023-07-13T08:21:59;31.20;70.60
32698;DHT22;19087;51.062;3.754;2023-07-13T08:24:25;31.80;69.20
32698;DHT22;19087;51.062;3.754;2023-07-13T08:26:51;31.70;69.30
32698;DHT22;19087;51.062;3.754;2023-07-13T08:29:16;30.90;69.80
32698;DHT22;19087;51.062;3.754;2023-07-13T08:31:42;30.00;71.80
32698;DHT22;19087;51.062;3.754;2023-07-13T08:34:07;29.30;72.10
32698;DHT22;19087;51.062;3.754;2023-07-13T08:36:34;29.10;73.00
32698;DHT22;19087;51.062;3.754;2023-07-13T08:38:59;29.00;73.40
32698;DHT22;19087;51.062;3.754;2023-07-13T08:41:26;30.10;72.10
32698;DHT22;19087;51.062;3.754;2023-07-13T08:43:56;30.40;70.40
32698;DHT22;19087;51.062;3.754;2023-07-13T08:46:34;30.90;69.70
32698;DHT22;19087;51.062;3.754;2023-07-13T08:49:05;31.50;68.90
32698;DHT22;19087;51.062;3.754;2023-07-13T08:51:45;32.10;68.00
32698;DHT22;19087;51.062;3.754;2023-07-13T08:54:18;33.50;63.80
32698;DHT22;19087;51.062;3.754;2023-07-13T08:56:45;33.70;63.00
32698;DHT22;19087;51.062;3.754;2023-07-13T08:59:16;33.20;63.70
32698;DHT22;19087;51.062;3.754;2023-07-13T09:04:20;34.40;61.20
32698;DHT22;19087;51.062;3.754;2023-07-13T09:12:08;33.00;61.30
32698;DHT22;19087;51.062;3.754;2023-07-13T09:14:45;32.20;62.50
32698;DHT22;19087;51.062;3.754;2023-07-13T09:17:19;31.40;64.10
32698;DHT22;19087;51.062;3.754;2023-07-13T09:19:47;30.90;65.30
32698;DHT22;19087;51.062;3.754;2023-07-13T09:22:14;29.80;66.90
32698;DHT22;19087;51.062;3.754;2023-07-13T09:24:47;29.50;66.90
32698;DHT22;19087;51.062;3.754;2023-07-13T09:27:15;28.80;67.10
32698;DHT22;19087;51.062;3.754;2023-07-13T09:29:45;28.30;69.00
32698;DHT22;19087;51.062;3.754;2023-07-13T09:32:11;27.70;71.20
32698;DHT22;19087;51.062;3.754;2023-07-13T09:34:38;27.30;70.90
32698;DHT22;19087;51.062;3.754;2023-07-13T09:37:04;26.50;73.00
32698;DHT22;19087;51.062;3.754;2023-07-13T09:39:40;26.40;74.00
32698;DHT22;19087;51.062;3.754;2023-07-13T09:44:37;26.20;76.50
32698;DHT22;19087;51.062;3.754;2023-07-13T09:47:03;26.30;76.60
32698;DHT22;19087;51.062;3.754;2023-07-13T09:49:30;26.10;76.90
32698;DHT22;19087;51.062;3.754;2023-07-13T09:51:59;26.10;75.90
32698;DHT22;19087;51.062;3.754;2023-07-13T09:54:27;26.00;76.50
32698;DHT22;19087;51.062;3.754;2023-07-13T09:56:57;26.00;76.40
32698;DHT22;19087;51.062;3.754;2023-07-13T09:59:31;25.70;76.90
32698;DHT22;19087;51.062;3.754;2023-07-13T10:01:57;25.90;77.80
32698;DHT22;19087;51.062;3.754;2023-07-13T10:04:26;26.20;76.40
32698;DHT22;19087;51.062;3.754;2023-07-13T10:06:53;26.50;76.50
32698;DHT22;19087;51.062;3.754;2023-07-13T10:09:29;26.80;75.50
32698;DHT22;19087;51.062;3.754;2023-07-13T10:11:55;27.40;75.50
32698;DHT22;19087;51.062;3.754;2023-07-13T10:14:21;27.60;73.50
32698;DHT22;19087;51.062;3.754;2023-07-13T10:16:52;27.90;71.90
32698;DHT22;19087;51.062;3.754;2023-07-13T10:19:25;28.00;71.10
32698;DHT22;19087;51.062;3.754;2023-07-13T10:24:36;28.20;71.20
32698;DHT22;19087;51.062;3.754;2023-07-13T10:27:10;28.40;71.10
32698;DHT22;19087;51.062;3.754;2023-07-13T10:29:52;28.70;70.30
32698;DHT22;19087;51.062;3.754;2023-07-13T10:32:21;28.80;70.00
32698;DHT22;19087;51.062;3.754;2023-07-13T10:34:50;28.90;69.30
32698;DHT22;19087;51.062;3.754;2023-07-13T10:37:22;28.70;70.00
32698;DHT22;19087;51.062;3.754;2023-07-13T10:39:53;28.40;68.70
32698;DHT22;19087;51.062;3.754;2023-07-13T10:42:27;28.10;69.70
32698;DHT22;19087;51.062;3.754;2023-07-13T10:44:54;27.50;69.30
32698;DHT22;19087;51.062;3.754;2023-07-13T10:47:20;27.10;70.10
32698;DHT22;19087;51.062;3.754;2023-07-13T10:49:46;26.50;74.10
32698;DHT22;19087;51.062;3.754;2023-07-13T10:55:02;25.50;82.30
32698;DHT22;19087;51.062;3.754;2023-07-13T10:57:28;24.90;87.60
32698;DHT22;19087;51.062;3.754;2023-07-13T11:02:29;23.60;92.70
32698;DHT22;19087;51.062;3.754;2023-07-13T11:04:56;23.00;94.50
32698;DHT22;19087;51.062;3.754;2023-07-13T11:07:28;22.50;95.90
32698;DHT22;19087;51.062;3.754;2023-07-13T11:09:54;22.00;97.90
32698;DHT22;19087;51.062;3.754;2023-07-13T11:17:24;21.90;99.90
32698;DHT22;19087;51.062;3.754;2023-07-13T11:19:51;22.20;99.90
32698;DHT22;19087;51.062;3.754;2023-07-13T11:22:22;22.50;99.90
32698;DHT22;19087;51.062;3.754;2023-07-13T11:27:30;23.20;99.90
32698;DHT22;19087;51.062;3.754;2023-07-13T11:30:09;23.30;99.70
32698;DHT22;19087;51.062;3.754;2023-07-13T11:32:43;23.60;99.20
32698;DHT22;19087;51.062;3.754;2023-07-13T11:35:16;23.70;98.80
32698;DHT22;19087;51.062;3.754;2023-07-13T11:37:44;24.00;98.30
32698;DHT22;19087;51.062;3.754;2023-07-13T11:40:14;24.50;97.30
32698;DHT22;19087;51.062;3.754;2023-07-13T11:42:46;24.80;96.20
32698;DHT22;19087;51.062;3.754;2023-07-13T11:45:21;25.00;94.80
32698;DHT22;19087;51.062;3.754;2023-07-13T11:47:48;25.30;94.20
32698;DHT22;19087;51.062;3.754;2023-07-13T11:50:21;25.70;93.10
32698;DHT22;19087;51.062;3.754;2023-07-13T11:52:48;26.10;93.60
32698;DHT22;19087;51.062;3.754;2023-07-13T11:55:19;26.30;92.20
32698;DHT22;19087;51.062;3.754;2023-07-13T11:57:53;26.50;91.50
32698;DHT22;19087;51.062;3.754;2023-07-13T12:00:22;26.60;92.10
32698;DHT22;19087;51.062;3.754;2023-07-13T12:02:49;26.90;91.30
32698;DHT22;19087;51.062;3.754;2023-07-13T12:05:16;27.00;90.90
32698;DHT22;19087;51.062;3.754;2023-07-13T12:07:48;27.20;90.80
32698;DHT22;19087;51.062;3.754;2023-07-13T12:12:50;27.70;90.10
32698;DHT22;19087;51.062;3.754;2023-07-13T12:15:19;28.00;90.00
32698;DHT22;19087;51.062;3.754;2023-07-13T12:17:46;28.00;88.60
32698;DHT22;19087;51.062;3.754;2023-07-13T12:20:21;28.00;86.60
32698;DHT22;19087;51.062;3.754;2023-07-13T12:22:51;28.00;84.70
32698;DHT22;19087;51.062;3.754;2023-07-13T12:25:20;27.70;83.50
32698;DHT22;19087;51.062;3.754;2023-07-13T12:27:47;27.50;84.40
32698;DHT22;19087;51.062;3.754;2023-07-13T12:35:26;27.30;83.80
32698;DHT22;19087;51.062;3.754;2023-07-13T12:37:55;27.10;83.70
32698;DHT22;19087;51.062;3.754;2023-07-13T12:40:32;27.00;84.10
32698;DHT22;19087;51.062;3.754;2023-07-13T12:42:58;27.10;83.90
32698;DHT22;19087;51.062;3.754;2023-07-13T12:45:25;27.00;83.00
32698;DHT22;19087;51.062;3.754;2023-07-13T12:47:55;27.20;84.00
32698;DHT22;19087;51.062;3.754;2023-07-13T12:50:28;27.30;82.80
32698;DHT22;19087;51.062;3.754;2023-07-13T12:52:54;27.50;82.50
32698;DHT22;19087;51.062;3.754;2023-07-13T12:55:22;27.50;81.00
32698;DHT22;19087;51.062;3.754;2023-07-13T13:02:49;27.10;82.60
32698;DHT22;19087;51.062;3.754;2023-07-13T13:05:15;27.30;82.70
32698;DHT22;19087;51.062;3.754;2023-07-13T13:07:41;27.20;82.30
32698;DHT22;19087;51.062;3.754;2023-07-13T13:10:12;27.40;82.90
32698;DHT22;19087;51.062;3.754;2023-07-13T13:12:39;27.60;81.40
32698;DHT22;19087;51.062;3.754;2023-07-13T13:15:06;27.50;81.80
32698;DHT22;19087;51.062;3.754;2023-07-13T13:17:34;27.60;80.70
32698;DHT22;19087;51.062;3.754;2023-07-13T13:20:01;27.60;81.30
32698;DHT22;19087;51.062;3.754;2023-07-13T13:22:27;27.70;80.80
32698;DHT22;19087;51.062;3.754;2023-07-13T13:24:52;27.80;77.00
32698;DHT22;19087;51.062;3.754;2023-07-13T13:27:18;27.80;76.20
32698;DHT22;19087;51.062;3.754;2023-07-13T13:29:45;27.90;75.60
32698;DHT22;19087;51.062;3.754;2023-07-13T13:32:13;27.50;74.30
32698;DHT22;19087;51.062;3.754;2023-07-13T13:34:39;27.40;74.80
32698;DHT22;19087;51.062;3.754;2023-07-13T13:37:11;27.40;75.30
32698;DHT22;19087;51.062;3.754;2023-07-13T13:39:41;27.40;74.80
32698;DHT22;19087;51.062;3.754;2023-07-13T13:42:08;27.00;73.60
32698;DHT22;19087;51.062;3.754;2023-07-13T13:44:34;26.90;74.60
32698;DHT22;19087;51.062;3.754;2023-07-13T13:47:00;26.90;75.40
32698;DHT22;19087;51.062;3.754;2023-07-13T13:49:26;26.90;75.10
32698;DHT22;19087;51.062;3.754;2023-07-13T13:51:52;27.00;73.40
32698;DHT22;19087;51.062;3.754;2023-07-13T13:54:19;27.00;71.90
32698;DHT22;19087;51.062;3.754;2023-07-13T13:56:46;27.00;72.10
32698;DHT22;19087;51.062;3.754;2023-07-13T13:59:12;27.10;72.50
32698;DHT22;19087;51.062;3.754;2023-07-13T14:01:38;27.10;71.80
32698;DHT22;19087;51.062;3.754;2023-07-13T14:04:04;27.20;72.00
32698;DHT22;19087;51.062;3.754;2023-07-13T14:06:31;27.20;72.20
32698;DHT22;19087;51.062;3.754;2023-07-13T14:08:57;27.20;72.40
32698;DHT22;19087;51.062;3.754;2023-07-13T14:11:23;27.20;71.80
32698;DHT22;19087;51.062;3.754;2023-07-13T14:13:51;27.00;71.10
32698;DHT22;19087;51.062;3.754;2023-07-13T14:16:17;27.00;71.10
32698;DHT22;19087;51.062;3.754;2023-07-13T14:18:43;27.00;71.80
32698;DHT22;19087;51.062;3.754;2023-07-13T14:21:19;26.70;71.30
32698;DHT22;19087;51.062;3.754;2023-07-13T14:23:45;26.40;72.00
32698;DHT22;19087;51.062;3.754;2023-07-13T14:26:13;26.30;72.50
32698;DHT22;19087;51.062;3.754;2023-07-13T14:28:40;26.40;72.80
32698;DHT22;19087;51.062;3.754;2023-07-13T14:31:07;26.40;71.30
32698;DHT22;19087;51.062;3.754;2023-07-13T14:33:32;26.30;71.80
32698;DHT22;19087;51.062;3.754;2023-07-13T14:35:58;26.40;72.40
32698;DHT22;19087;51.062;3.754;2023-07-13T14:38:24;26.60;72.40
32698;DHT22;19087;51.062;3.754;2023-07-13T14:40:50;26.90;73.10
32698;DHT22;19087;51.062;3.754;2023-07-13T14:43:16;26.80;71.80
32698;DHT22;19087;51.062;3.754;2023-07-13T14:45:49;26.90;72.20
32698;DHT22;19087;51.062;3.754;2023-07-13T14:48:20;26.90;71.50
32698;DHT22;19087;51.062;3.754;2023-07-13T14:50:46;26.80;70.90
32698;DHT22;19087;51.062;3.754;2023-07-13T14:53:12;26.90;71.20
32698;DHT22;19087;51.062;3.754;2023-07-13T14:55:38;27.00;71.50
32698;DHT22;19087;51.062;3.754;2023-07-13T14:58:04;27.30;70.30
32698;DHT22;19087;51.062;3.754;2023-07-13T15:00:29;27.50;69.90
32698;DHT22;19087;51.062;3.754;2023-07-13T15:02:57;27.40;68.90
32698;DHT22;19087;51.062;3.754;2023-07-13T15:05:30;27.20;68.70
32698;DHT22;19087;51.062;3.754;2023-07-13T15:07:59;27.20;68.80
32698;DHT22;19087;51.062;3.754;2023-07-13T15:10:27;27.10;69.30
32698;DHT22;19087;51.062;3.754;2023-07-13T15:12:56;26.80;70.00
32698;DHT22;19087;51.062;3.754;2023-07-13T15:15:23;26.60;70.40
32698;DHT22;19087;51.062;3.754;2023-07-13T15:17:48;26.30;71.40
32698;DHT22;19087;51.062;3.754;2023-07-13T15:22:43;26.10;72.50
32698;DHT22;19087;51.062;3.754;2023-07-13T15:25:19;26.20;72.60
32698;DHT22;19087;51.062;3.754;2023-07-13T15:27:46;26.20;72.50
32698;DHT22;19087;51.062;3.754;2023-07-13T15:30:14;26.30;73.00
32698;DHT22;19087;51.062;3.754;2023-07-13T15:32:41;26.40;73.20
32698;DHT22;19087;51.062;3.754;2023-07-13T15:35:13;26.70;73.10
32698;DHT22;19087;51.062;3.754;2023-07-13T15:37:40;27.00;70.90
32698;DHT22;19087;51.062;3.754;2023-07-13T15:40:06;27.20;70.30
32698;DHT22;19087;51.062;3.754;2023-07-13T15:42:32;27.00;69.80
32698;DHT22;19087;51.062;3.754;2023-07-13T15:44:58;27.10;70.00
32698;DHT22;19087;51.062;3.754;2023-07-13T15:47:23;27.10;69.40
32698;DHT22;19087;51.062;3.754;2023-07-13T15:49:49;27.20;69.00
32698;DHT22;19087;51.062;3.754;2023-07-13T15:52:18;27.20;68.00
32698;DHT22;19087;51.062;3.754;2023-07-13T15:54:45;27.30;67.60
32698;DHT22;19087;51.062;3.754;2023-07-13T15:57:10;27.30;66.10
32698;DHT22;19087;51.062;3.754;2023-07-13T15:59:37;27.20;66.50
32698;DHT22;19087;51.062;3.754;2023-07-13T16:02:20;27.00;65.40
32698;DHT22;19087;51.062;3.754;2023-07-13T16:04:46;26.90;65.90
32698;DHT22;19087;51.062;3.754;2023-07-13T16:07:12;26.70;66.60
32698;DHT22;19087;51.062;3.754;2023-07-13T16:09:38;26.40;67.60
32698;DHT22;19087;51.062;3.754;2023-07-13T16:12:12;26.30;68.00